Time,TemperatureF,DewpointF,PressureIn,WindDirection,WindDirectionDegrees,WindSpeedMPH,WindSpeedGustMPH,Humidity,HourlyPrecipIn,Conditions,Clouds,dailyrainin,SoftwareType,DateUTC
2013-01-30 00:04:00,-999.0,-99.9,30.12,West,276,3.5,10.3,-999,0.00,,,0.00,WSDL version 420,2013-01-30 05:04:00,
2013-01-30 00:09:00,58.3,54.8,30.13,ENE,68,3.6,10.3,89,0.00,,,0.00,WSDL version 420,2013-01-30 05:09:00,
2013-01-30 00:14:00,58.4,55.1,30.12,NNW,341,5.1,11.0,89,0.00,,,0.00,WSDL version 420,2013-01-30 05:14:00,
2013-01-30 00:19:00,58.4,55.0,30.12,WNW,287,5.1,11.0,89,0.05,,,0.05,WSDL version 420,2013-01-30 05:19:00,
2013-01-30 00:24:00,58.4,54.7,30.12,SSE,160,4.3,8.5,88,0.05,,,0.05,WSDL version 420,2013-01-30 05:24:00,
2013-01-30 00:29:00,58.5,54.9,30.12,SE,127,3.8,7.6,88,0.05,,,0.05,WSDL version 420,2013-01-30 05:29:00,
2013-01-30 00:34:00,58.5,54.9,30.09,WSW,250,5.8,9.8,87,0.05,,,0.05,WSDL version 420,2013-01-30 05:34:00,
2013-01-30 00:39:00,58.6,54.6,30.09,NW,320,6.2,12.8,87,0.05,,,0.05,WSDL version 420,2013-01-30 05:39:00,
2013-01-30 00:44:00,58.5,54.7,30.09,WNW,298,5.5,12.8,88,0.05,,,0.05,WSDL version 420,2013-01-30 05:44:00,
2013-01-30 00:49:00,58.5,54.9,30.09,West,264,4.1,8.7,88,0.05,,,0.05,WSDL version 420,2013-01-30 05:49:00,
2013-01-30 00:54:00,58.5,54.9,30.09,WSW,238,3.9,8.7,88,0.05,,,0.05,WSDL version 420,2013-01-30 05:54:00,
2013-01-30 00:59:00,58.7,55.1,30.09,West,281,7.4,13.0,88,0.05,,,0.05,WSDL version 420,2013-01-30 05:59:00,
2013-01-30 01:04:00,58.6,55.0,30.09,West,273,5.0,13.0,88,0.05,,,0.05,WSDL version 420,2013-01-30 06:04:00,
2013-01-30 01:09:00,58.7,55.0,30.09,WSW,242,7.5,12.8,87,0.05,,,0.05,WSDL version 420,2013-01-30 06:09:00,
2013-01-30 01:14:00,58.8,54.7,30.09,NNW,330,6.4,17.4,86,0.05,,,0.05,WSDL version 420,2013-01-30 06:14:00,
2013-01-30 01:19:00,58.8,54.5,30.09,West,281,5.6,17.4,86,0.00,,,0.05,WSDL version 420,2013-01-30 06:19:00,
2013-01-30 01:24:00,58.8,54.3,30.09,North,355,5.9,13.2,84,0.00,,,0.05,WSDL version 420,2013-01-30 06:24:00,
2013-01-30 01:29:00,58.8,54.1,30.09,WNW,298,3.3,11.0,84,0.00,,,0.05,WSDL version 420,2013-01-30 06:29:00,
2013-01-30 01:34:00,58.6,54.0,30.09,ENE,59,5.2,8.5,84,0.00,,,0.05,WSDL version 420,2013-01-30 06:34:00,
2013-01-30 01:39:00,58.6,54.0,30.09,WSW,250,5.6,8.5,84,0.00,,,0.05,WSDL version 420,2013-01-30 06:39:00,
2013-01-30 01:44:00,58.6,53.5,30.09,SW,225,4.7,23.7,82,0.00,,,0.05,WSDL version 420,2013-01-30 06:44:00,
2013-01-30 01:49:00,58.6,53.2,30.05,WNW,303,5.8,23.7,82,0.00,,,0.05,WSDL version 420,2013-01-30 06:49:00,
2013-01-30 01:54:00,58.6,52.9,30.06,WNW,302,2.9,12.1,82,0.00,,,0.05,WSDL version 420,2013-01-30 06:54:00,
2013-01-30 01:59:00,58.5,52.7,30.06,SW,214,3.7,12.8,81,0.00,,,0.05,WSDL version 420,2013-01-30 06:59:00,
2013-01-30 02:04:00,58.3,52.5,30.06,WNW,285,4.6,12.8,81,0.00,,,0.05,WSDL version 420,2013-01-30 07:04:00,
2013-01-30 02:09:00,58.5,52.6,30.06,NW,304,7.7,14.3,80,0.00,,,0.05,WSDL version 420,2013-01-30 07:09:00,
2013-01-30 02:14:00,58.5,52.7,30.06,WNW,293,4.0,14.3,81,0.00,,,0.05,WSDL version 420,2013-01-30 07:14:00,
2013-01-30 02:19:00,58.4,52.9,30.06,West,281,6.0,9.6,82,0.00,,,0.05,WSDL version 420,2013-01-30 07:19:00,
2013-01-30 02:24:00,58.4,53.2,30.06,SE,128,6.4,16.3,83,0.00,,,0.05,WSDL version 420,2013-01-30 07:24:00,
2013-01-30 02:29:00,58.6,53.5,30.06,WNW,287,7.1,16.3,83,0.00,,,0.05,WSDL version 420,2013-01-30 07:29:00,
2013-01-30 02:34:00,58.6,53.3,30.06,WNW,295,9.1,15.2,82,0.00,,,0.05,WSDL version 420,2013-01-30 07:34:00,
2013-01-30 02:39:00,58.6,53.0,30.06,West,275,7.0,15.4,81,0.00,,,0.05,WSDL version 420,2013-01-30 07:39:00,
2013-01-30 02:44:00,58.6,52.9,30.06,NW,312,4.6,15.4,81,0.00,,,0.05,WSDL version 420,2013-01-30 07:44:00,
2013-01-30 02:49:00,58.5,52.7,30.06,WNW,290,2.8,10.3,81,0.00,,,0.05,WSDL version 420,2013-01-30 07:49:00,
2013-01-30 02:54:00,58.5,52.7,30.06,West,276,4.8,9.6,81,0.00,,,0.05,WSDL version 420,2013-01-30 07:54:00,
2013-01-30 02:59:00,58.5,52.5,30.06,SW,230,4.1,10.7,80,0.00,,,0.05,WSDL version 420,2013-01-30 07:59:00,
2013-01-30 03:04:00,58.6,52.3,30.03,West,278,5.3,10.7,79,0.00,,,0.05,WSDL version 420,2013-01-30 08:04:00,
2013-01-30 03:09:00,58.5,52.1,30.02,WSW,253,4.0,10.3,79,0.00,,,0.05,WSDL version 420,2013-01-30 08:09:00,
2013-01-30 03:14:00,58.4,52.0,30.03,West,265,5.1,10.3,79,0.00,,,0.05,WSDL version 420,2013-01-30 08:14:00,
2013-01-30 03:19:00,58.4,51.8,30.03,WNW,287,5.3,10.1,78,0.00,,,0.05,WSDL version 420,2013-01-30 08:19:00,
2013-01-30 03:24:00,58.4,51.6,30.03,NW,305,5.0,12.5,77,0.00,,,0.05,WSDL version 420,2013-01-30 08:24:00,
2013-01-30 03:29:00,58.4,51.3,30.03,WSW,242,3.9,12.5,77,0.00,,,0.05,WSDL version 420,2013-01-30 08:29:00,
2013-01-30 03:34:00,58.2,51.1,30.03,WSW,251,2.8,9.8,78,0.00,,,0.05,WSDL version 420,2013-01-30 08:34:00,
2013-01-30 03:39:00,58.0,51.0,30.03,West,270,6.8,17.0,76,0.00,,,0.05,WSDL version 420,2013-01-30 08:39:00,
2013-01-30 03:44:00,58.1,50.8,30.03,South,185,4.5,17.0,76,0.00,,,0.05,WSDL version 420,2013-01-30 08:44:00,
2013-01-30 03:49:00,58.0,50.4,30.03,WNW,283,5.4,11.0,76,0.00,,,0.05,WSDL version 420,2013-01-30 08:49:00,
2013-01-30 03:54:00,57.8,50.3,30.03,West,267,2.8,11.0,76,0.00,,,0.05,WSDL version 420,2013-01-30 08:54:00,
2013-01-30 03:59:00,57.7,50.2,30.03,NW,309,5.3,7.6,76,0.00,,,0.05,WSDL version 420,2013-01-30 08:59:00,
2013-01-30 04:04:00,57.7,50.2,30.03,NW,309,5.5,7.6,75,0.00,,,0.05,WSDL version 420,2013-01-30 09:04:00,
2013-01-30 04:09:00,57.6,50.1,30.03,South,183,2.6,7.6,77,0.00,,,0.05,WSDL version 420,2013-01-30 09:09:00,
2013-01-30 04:14:00,57.2,50.4,30.03,NW,304,2.6,6.5,79,0.00,,,0.05,WSDL version 420,2013-01-30 09:14:00,
2013-01-30 04:19:00,57.1,50.8,30.00,NW,305,4.1,7.4,81,0.00,,,0.05,WSDL version 420,2013-01-30 09:19:00,
2013-01-30 04:24:00,57.4,51.9,30.00,WSW,253,4.7,13.2,82,0.00,,,0.05,WSDL version 420,2013-01-30 09:24:00,
2013-01-30 04:29:00,57.5,52.2,30.00,NW,326,6.2,13.2,83,0.00,,,0.05,WSDL version 420,2013-01-30 09:29:00,
2013-01-30 04:34:00,57.5,52.8,30.03,West,268,3.9,14.8,84,0.00,,,0.05,WSDL version 420,2013-01-30 09:34:00,
2013-01-30 04:39:00,57.6,52.9,30.03,East,98,3.1,14.8,84,0.04,,,0.09,WSDL version 420,2013-01-30 09:39:00,
2013-01-30 04:44:00,57.4,52.8,30.03,West,268,1.2,14.5,84,0.04,,,0.09,WSDL version 420,2013-01-30 09:44:00,
2013-01-30 04:49:00,57.5,53.0,30.00,NW,312,6.0,10.3,86,0.04,,,0.09,WSDL version 420,2013-01-30 09:49:00,
2013-01-30 04:54:00,57.9,53.6,30.00,WSW,255,4.2,10.3,86,0.04,,,0.09,WSDL version 420,2013-01-30 09:54:00,
2013-01-30 04:59:00,57.7,53.4,30.00,NW,315,5.4,10.3,86,0.04,,,0.09,WSDL version 420,2013-01-30 09:59:00,
2013-01-30 05:04:00,57.9,53.9,30.00,West,259,3.6,11.9,86,0.04,,,0.09,WSDL version 420,2013-01-30 10:04:00,
2013-01-30 05:09:00,58.0,54.0,30.00,West,265,5.6,11.9,87,0.04,,,0.09,WSDL version 420,2013-01-30 10:09:00,
2013-01-30 05:14:00,58.0,53.8,30.00,West,273,4.0,11.9,86,0.04,,,0.09,WSDL version 420,2013-01-30 10:14:00,
2013-01-30 05:19:00,58.1,53.8,30.00,WNW,300,5.6,7.6,86,0.04,,,0.09,WSDL version 420,2013-01-30 10:19:00,
2013-01-30 05:24:00,58.1,54.1,30.00,NW,315,7.1,15.9,87,0.04,,,0.09,WSDL version 420,2013-01-30 10:24:00,
2013-01-30 05:29:00,58.1,54.3,30.00,WNW,295,7.7,15.9,88,0.04,,,0.09,WSDL version 420,2013-01-30 10:29:00,
2013-01-30 05:34:00,58.2,54.3,29.97,West,280,6.9,12.3,87,0.04,,,0.09,WSDL version 420,2013-01-30 10:34:00,
2013-01-30 05:39:00,58.1,54.2,29.97,WSW,250,5.5,12.3,87,0.00,,,0.09,WSDL version 420,2013-01-30 10:39:00,
2013-01-30 05:44:00,58.2,54.2,29.97,West,270,9.0,17.0,87,0.00,,,0.09,WSDL version 420,2013-01-30 10:44:00,
2013-01-30 05:49:00,58.1,54.4,29.97,WNW,296,4.8,17.0,88,0.00,,,0.09,WSDL version 420,2013-01-30 10:49:00,
2013-01-30 05:54:00,58.1,54.5,29.97,WSW,238,3.8,7.4,88,0.00,,,0.09,WSDL version 420,2013-01-30 10:54:00,
2013-01-30 05:59:00,58.1,54.5,29.97,West,278,3.0,11.9,88,0.04,,,0.13,WSDL version 420,2013-01-30 10:59:00,
2013-01-30 06:04:00,58.4,54.7,29.97,West,270,5.5,13.0,88,0.04,,,0.13,WSDL version 420,2013-01-30 11:04:00,
2013-01-30 06:09:00,58.2,54.6,29.97,SSW,205,2.4,13.0,88,0.04,,,0.13,WSDL version 420,2013-01-30 11:09:00,
2013-01-30 06:14:00,58.3,54.7,29.97,North,354,6.6,10.1,88,0.04,,,0.13,WSDL version 420,2013-01-30 11:14:00,
2013-01-30 06:19:00,58.1,54.5,29.97,West,278,4.6,11.9,88,0.04,,,0.13,WSDL version 420,2013-01-30 11:19:00,
2013-01-30 06:24:00,58.2,54.6,29.97,WNW,295,5.4,11.9,88,0.04,,,0.13,WSDL version 420,2013-01-30 11:24:00,
2013-01-30 06:29:00,58.3,54.7,29.97,NW,305,6.3,14.8,88,0.04,,,0.13,WSDL version 420,2013-01-30 11:29:00,
2013-01-30 06:34:00,58.3,54.7,29.97,NNW,332,8.9,22.8,88,0.04,,,0.13,WSDL version 420,2013-01-30 11:34:00,
2013-01-30 06:39:00,58.5,54.5,29.97,SW,225,7.8,22.8,87,0.04,,,0.13,WSDL version 420,2013-01-30 11:39:00,
2013-01-30 06:44:00,58.5,54.5,29.97,SW,223,5.0,12.3,87,0.04,,,0.13,WSDL version 420,2013-01-30 11:44:00,
2013-01-30 06:49:00,58.4,54.4,29.97,West,273,2.6,12.3,87,0.04,,,0.13,WSDL version 420,2013-01-30 11:49:00,
2013-01-30 06:54:00,58.2,54.2,29.97,WNW,290,4.1,9.8,87,0.04,,,0.13,WSDL version 420,2013-01-30 11:54:00,
2013-01-30 06:59:00,58.1,54.2,29.97,West,273,2.6,6.5,87,0.00,,,0.13,WSDL version 420,2013-01-30 11:59:00,
2013-01-30 07:04:00,58.1,54.2,29.97,WNW,293,4.2,8.1,87,0.00,,,0.13,WSDL version 420,2013-01-30 12:04:00,
2013-01-30 07:09:00,58.2,54.6,29.97,WNW,301,4.1,14.1,88,0.00,,,0.13,WSDL version 420,2013-01-30 12:09:00,
2013-01-30 07:14:00,58.2,54.6,29.97,WSW,250,5.0,14.1,89,0.00,,,0.13,WSDL version 420,2013-01-30 12:14:00,
2013-01-30 07:19:00,58.1,54.6,29.94,West,270,2.5,10.3,89,0.00,,,0.13,WSDL version 420,2013-01-30 12:19:00,
2013-01-30 07:24:00,58.2,55.1,29.94,NW,304,8.2,17.0,90,0.00,,,0.13,WSDL version 420,2013-01-30 12:24:00,
2013-01-30 07:29:00,58.3,55.4,29.94,West,278,9.7,17.0,91,0.00,,,0.13,WSDL version 420,2013-01-30 12:29:00,
2013-01-30 07:34:00,58.1,55.6,29.97,WSW,238,3.8,15.7,91,0.00,,,0.13,WSDL version 420,2013-01-30 12:34:00,
2013-01-30 07:39:00,58.1,55.6,29.97,WNW,285,8.4,17.4,92,0.00,,,0.13,WSDL version 420,2013-01-30 12:39:00,
2013-01-30 07:44:00,58.2,55.9,29.97,NW,325,7.2,17.4,92,0.00,,,0.13,WSDL version 420,2013-01-30 12:44:00,
2013-01-30 07:49:00,58.3,56.0,29.94,NW,318,5.9,16.6,92,0.00,,,0.13,WSDL version 420,2013-01-30 12:49:00,
2013-01-30 07:54:00,-999.0,-99.9,29.94,WNW,287,5.0,16.6,-999,0.00,,,0.13,WSDL version 420,2013-01-30 12:54:00,
2013-01-30 07:59:00,58.4,55.8,29.94,WNW,295,11.1,20.1,91,0.00,,,0.13,WSDL version 420,2013-01-30 12:59:00,
2013-01-30 08:04:00,58.6,55.7,29.94,NW,308,5.2,20.1,90,0.00,,,0.13,WSDL version 420,2013-01-30 13:04:00,
2013-01-30 08:09:00,58.6,55.5,29.94,WNW,298,4.9,15.7,89,0.00,,,0.13,WSDL version 420,2013-01-30 13:09:00,
2013-01-30 08:14:00,58.6,55.4,29.94,SW,233,5.5,15.4,89,0.00,,,0.13,WSDL version 420,2013-01-30 13:14:00,
2013-01-30 08:19:00,58.7,55.4,29.94,WSW,248,8.2,12.8,89,0.00,,,0.13,WSDL version 420,2013-01-30 13:19:00,
2013-01-30 08:24:00,58.7,55.4,29.94,West,273,7.1,17.4,89,0.00,,,0.13,WSDL version 420,2013-01-30 13:24:00,
2013-01-30 08:29:00,58.6,55.4,29.94,SW,233,5.0,17.4,89,0.00,,,0.13,WSDL version 420,2013-01-30 13:29:00,
2013-01-30 08:34:00,58.6,55.6,29.90,SSW,210,2.3,10.3,90,0.00,,,0.13,WSDL version 420,2013-01-30 13:34:00,
2013-01-30 08:39:00,58.5,55.6,29.90,West,281,7.9,12.5,91,0.00,,,0.13,WSDL version 420,2013-01-30 13:39:00,
2013-01-30 08:44:00,58.5,55.9,29.90,WNW,301,6.7,15.2,91,0.04,,,0.17,WSDL version 420,2013-01-30 13:44:00,
2013-01-30 08:49:00,58.5,56.0,29.94,WNW,300,8.8,17.7,92,0.04,,,0.17,WSDL version 420,2013-01-30 13:49:00,
2013-01-30 08:54:00,58.5,56.2,29.94,West,262,6.7,17.7,92,0.04,,,0.17,WSDL version 420,2013-01-30 13:54:00,
2013-01-30 08:59:00,58.5,56.2,29.94,West,265,5.9,18.1,92,0.04,,,0.17,WSDL version 420,2013-01-30 13:59:00,
2013-01-30 09:04:00,58.5,56.2,29.94,SSW,210,8.7,23.0,92,0.04,,,0.17,WSDL version 420,2013-01-30 14:04:00,
2013-01-30 09:09:00,58.6,56.3,29.94,West,270,9.5,23.0,92,0.04,,,0.17,WSDL version 420,2013-01-30 14:09:00,
2013-01-30 09:14:00,58.5,56.2,29.94,WNW,301,5.3,17.7,92,0.04,,,0.17,WSDL version 420,2013-01-30 14:14:00,
2013-01-30 09:19:00,58.5,56.2,29.94,NNW,347,8.4,12.8,92,0.04,,,0.17,WSDL version 420,2013-01-30 14:19:00,
2013-01-30 09:24:00,58.5,56.1,29.94,West,267,5.0,11.9,91,0.04,,,0.17,WSDL version 420,2013-01-30 14:24:00,
2013-01-30 09:29:00,58.5,55.9,29.94,West,280,6.2,10.5,91,0.04,,,0.17,WSDL version 420,2013-01-30 14:29:00,
2013-01-30 09:34:00,58.6,56.0,29.90,WNW,290,4.6,9.6,91,0.04,,,0.17,WSDL version 420,2013-01-30 14:34:00,
2013-01-30 09:39:00,58.8,56.2,29.90,West,260,5.8,11.9,91,0.04,,,0.17,WSDL version 420,2013-01-30 14:39:00,
2013-01-30 09:44:00,58.8,56.0,29.90,WNW,289,7.9,17.7,90,0.00,,,0.17,WSDL version 420,2013-01-30 14:44:00,
2013-01-30 09:49:00,58.9,55.8,29.90,WSW,240,3.9,17.7,90,0.00,,,0.17,WSDL version 420,2013-01-30 14:49:00,
2013-01-30 09:54:00,58.9,55.9,29.90,West,264,5.3,16.1,90,0.00,,,0.17,WSDL version 420,2013-01-30 14:54:00,
2013-01-30 09:59:00,59.0,55.8,29.90,West,264,5.0,12.3,90,0.00,,,0.17,WSDL version 420,2013-01-30 14:59:00,
2013-01-30 10:04:00,58.8,56.0,29.90,North,11,5.3,12.8,91,0.00,,,0.17,WSDL version 420,2013-01-30 15:04:00,
2013-01-30 10:09:00,58.8,56.2,29.90,NW,315,7.6,19.7,91,0.00,,,0.17,WSDL version 420,2013-01-30 15:09:00,
2013-01-30 10:14:00,58.9,56.1,29.90,West,280,6.8,19.7,90,0.00,,,0.17,WSDL version 420,2013-01-30 15:14:00,
2013-01-30 10:19:00,59.0,56.1,29.87,West,270,4.9,15.2,90,0.00,,,0.17,WSDL version 420,2013-01-30 15:19:00,
2013-01-30 10:24:00,59.0,56.1,29.87,NW,313,4.0,10.1,90,0.00,,,0.17,WSDL version 420,2013-01-30 15:24:00,
2013-01-30 10:29:00,59.1,56.2,29.87,WSW,256,5.1,10.1,90,0.00,,,0.17,WSDL version 420,2013-01-30 15:29:00,
2013-01-30 10:34:00,59.2,56.3,29.90,WSW,253,3.9,10.1,90,0.00,,,0.17,WSDL version 420,2013-01-30 15:34:00,
2013-01-30 10:39:00,59.3,56.4,29.90,SSE,166,3.2,13.9,90,0.00,,,0.17,WSDL version 420,2013-01-30 15:39:00,
2013-01-30 10:49:00,59.4,56.2,29.87,WNW,298,5.1,13.0,89,0.04,,,0.21,WSDL version 420,2013-01-30 15:49:00,
2013-01-30 10:54:00,59.4,56.2,29.87,SW,235,6.1,10.7,89,0.04,,,0.21,WSDL version 420,2013-01-30 15:54:00,
2013-01-30 10:59:00,59.8,56.0,29.87,West,267,7.2,17.7,87,0.04,,,0.21,WSDL version 420,2013-01-30 15:59:00,
2013-01-30 11:04:00,59.7,55.5,29.90,South,176,3.2,17.7,86,0.04,,,0.21,WSDL version 420,2013-01-30 16:04:00,
2013-01-30 11:09:00,59.6,55.3,29.90,NW,313,3.8,11.9,86,0.04,,,0.21,WSDL version 420,2013-01-30 16:09:00,
2013-01-30 11:14:00,59.5,55.6,29.90,West,276,7.4,10.7,87,0.04,,,0.21,WSDL version 420,2013-01-30 16:14:00,
2013-01-30 11:19:00,59.5,55.5,29.87,WSW,253,5.3,12.5,87,0.04,,,0.21,WSDL version 420,2013-01-30 16:19:00,
2013-01-30 11:24:00,59.5,55.4,29.87,NNW,335,4.9,12.5,86,0.04,,,0.21,WSDL version 420,2013-01-30 16:24:00,
2013-01-30 11:29:00,59.4,55.3,29.87,NW,323,2.7,12.5,87,0.04,,,0.21,WSDL version 420,2013-01-30 16:29:00,
2013-01-30 11:34:00,59.6,55.5,29.87,West,273,4.7,12.3,87,0.04,,,0.21,WSDL version 420,2013-01-30 16:34:00,
2013-01-30 11:39:00,59.5,55.6,29.87,WNW,284,2.1,12.3,87,0.04,,,0.21,WSDL version 420,2013-01-30 16:39:00,
2013-01-30 11:44:00,59.6,55.4,29.87,South,188,3.8,12.8,86,0.08,,,0.25,WSDL version 420,2013-01-30 16:44:00,
2013-01-30 11:49:00,59.5,55.0,29.87,SW,221,6.6,21.9,84,0.04,,,0.25,WSDL version 420,2013-01-30 16:49:00,
2013-01-30 11:54:00,59.5,55.0,29.87,NNW,340,6.1,21.9,86,0.04,,,0.25,WSDL version 420,2013-01-30 16:54:00,
2013-01-30 11:59:00,-999.0,-99.9,29.87,NW,318,2.7,10.3,-999,0.04,,,0.25,WSDL version 420,2013-01-30 16:59:00,
2013-01-30 12:04:00,-999.0,-99.9,29.87,WNW,283,4.5,12.8,-999,0.04,,,0.25,WSDL version 420,2013-01-30 17:04:00,
2013-01-30 12:09:00,-999.0,-99.9,29.87,NNW,328,4.3,12.8,-999,0.04,,,0.25,WSDL version 420,2013-01-30 17:09:00,
2013-01-30 12:14:00,-999.0,-99.9,29.87,West,278,3.7,9.6,-999,0.04,,,0.25,WSDL version 420,2013-01-30 17:14:00,
2013-01-30 12:19:00,-999.0,-99.9,29.84,NW,308,2.2,7.8,-999,0.04,,,0.25,WSDL version 420,2013-01-30 17:19:00,
2013-01-30 12:24:00,-999.0,-99.9,29.84,South,174,2.5,7.4,-999,0.04,,,0.25,WSDL version 420,2013-01-30 17:24:00,
2013-01-30 12:29:00,-999.0,-99.9,29.84,WNW,288,3.1,9.6,-999,0.04,,,0.25,WSDL version 420,2013-01-30 17:29:00,
2013-01-30 12:34:00,-999.0,-99.9,29.84,WNW,283,5.0,10.3,-999,0.04,,,0.25,WSDL version 420,2013-01-30 17:34:00,
2013-01-30 12:39:00,-999.0,-99.9,29.84,SE,135,4.0,10.3,-999,0.04,,,0.25,WSDL version 420,2013-01-30 17:39:00,
2013-01-30 12:44:00,-999.0,-99.9,29.84,South,170,5.0,12.3,-999,0.00,,,0.25,WSDL version 420,2013-01-30 17:44:00,
2013-01-30 12:49:00,-999.0,-99.9,29.80,WSW,245,1.8,12.3,-999,0.00,,,0.25,WSDL version 420,2013-01-30 17:49:00,
2013-01-30 12:54:00,-999.0,-99.9,29.80,SSW,193,4.2,10.7,-999,0.05,,,0.30,WSDL version 420,2013-01-30 17:54:00,
2013-01-30 12:59:00,-999.0,-99.9,29.80,SW,235,5.3,10.7,-999,0.05,,,0.30,WSDL version 420,2013-01-30 17:59:00,
2013-01-30 13:04:00,-999.0,-99.9,29.77,NW,308,2.6,11.4,-999,0.05,,,0.30,WSDL version 420,2013-01-30 18:04:00,
2013-01-30 13:09:00,59.7,56.1,29.77,North,360,3.5,11.4,88,0.05,,,0.30,WSDL version 420,2013-01-30 18:09:00,
2013-01-30 13:14:00,-999.0,-99.9,29.77,East,90,4.8,12.3,-999,0.05,,,0.30,WSDL version 420,2013-01-30 18:14:00,
2013-01-30 13:19:00,-999.0,-99.9,29.77,NNE,23,1.8,12.3,-999,0.05,,,0.30,WSDL version 420,2013-01-30 18:19:00,
2013-01-30 13:24:00,-999.0,-99.9,29.77,SE,135,5.1,10.1,-999,0.05,,,0.30,WSDL version 420,2013-01-30 18:24:00,
2013-01-30 13:29:00,-999.0,-99.9,29.77,WNW,293,5.5,10.1,-999,0.05,,,0.30,WSDL version 420,2013-01-30 18:29:00,
2013-01-30 13:34:00,-999.0,-99.9,29.77,WNW,302,5.3,14.5,-999,0.05,,,0.30,WSDL version 420,2013-01-30 18:34:00,
2013-01-30 13:39:00,-999.0,-99.9,29.77,South,190,3.2,14.5,-999,0.08,,,0.33,WSDL version 420,2013-01-30 18:39:00,
2013-01-30 13:44:00,-999.0,-99.9,29.77,WNW,290,4.9,10.5,-999,0.08,,,0.33,WSDL version 420,2013-01-30 18:44:00,
2013-01-30 13:49:00,-999.0,-99.9,29.74,SE,125,5.5,10.5,-999,0.08,,,0.33,WSDL version 420,2013-01-30 18:49:00,
2013-01-30 13:54:00,-999.0,-99.9,29.74,SW,230,4.1,16.6,-999,0.03,,,0.33,WSDL version 420,2013-01-30 18:54:00,
2013-01-30 13:59:00,-999.0,-99.9,29.74,West,267,6.8,16.6,-999,0.03,,,0.33,WSDL version 420,2013-01-30 18:59:00,
2013-01-30 14:04:00,-999.0,-99.9,29.74,WSW,255,4.2,13.0,-999,0.03,,,0.33,WSDL version 420,2013-01-30 19:04:00,
2013-01-30 14:09:00,-999.0,-99.9,29.74,WNW,298,6.4,17.4,-999,0.03,,,0.33,WSDL version 420,2013-01-30 19:09:00,
2013-01-30 14:14:00,-999.0,-99.9,29.74,SW,228,7.9,17.4,-999,0.03,,,0.33,WSDL version 420,2013-01-30 19:14:00,
2013-01-30 14:19:00,-999.0,-99.9,29.74,West,265,7.5,19.7,-999,0.03,,,0.33,WSDL version 420,2013-01-30 19:19:00,
2013-01-30 14:24:00,-999.0,-99.9,29.74,WNW,286,3.6,19.7,-999,0.03,,,0.33,WSDL version 420,2013-01-30 19:24:00,
2013-01-30 14:29:00,-999.0,-99.9,29.74,WSW,255,8.9,17.2,-999,0.08,,,0.38,WSDL version 420,2013-01-30 19:29:00,
2013-01-30 14:34:00,-999.0,-99.9,29.70,WNW,289,6.5,17.2,-999,0.08,,,0.38,WSDL version 420,2013-01-30 19:34:00,
2013-01-30 14:39:00,-999.0,-99.9,29.70,WSW,243,4.5,15.7,-999,0.05,,,0.38,WSDL version 420,2013-01-30 19:39:00,
2013-01-30 14:44:00,-999.0,-99.9,29.70,NNW,341,5.2,15.7,-999,0.05,,,0.38,WSDL version 420,2013-01-30 19:44:00,
2013-01-30 14:49:00,-999.0,-99.9,29.70,WNW,283,5.1,7.6,-999,0.05,,,0.38,WSDL version 420,2013-01-30 19:49:00,
2013-01-30 14:54:00,60.2,56.4,29.70,West,278,5.7,12.1,87,0.09,,,0.42,WSDL version 420,2013-01-30 19:54:00,
2013-01-30 14:59:00,-999.0,-99.9,29.70,NW,321,6.6,21.0,-999,0.09,,,0.42,WSDL version 420,2013-01-30 19:59:00,
2013-01-30 15:04:00,60.3,56.6,29.67,WNW,285,5.7,21.0,88,0.09,,,0.42,WSDL version 420,2013-01-30 20:04:00,
2013-01-30 15:09:00,60.3,56.6,29.67,WNW,289,9.3,17.4,88,0.09,,,0.42,WSDL version 420,2013-01-30 20:09:00,
2013-01-30 15:14:00,-999.0,-99.9,29.67,West,278,5.9,23.3,-999,0.13,,,0.46,WSDL version 420,2013-01-30 20:14:00,
2013-01-30 15:19:00,-999.0,-99.9,29.70,SSE,167,3.7,23.3,-999,0.17,,,0.50,WSDL version 420,2013-01-30 20:19:00,
2013-01-30 15:24:00,-999.0,-99.9,29.70,NW,318,6.6,17.2,-999,0.17,,,0.50,WSDL version 420,2013-01-30 20:24:00,
2013-01-30 15:29:00,-999.0,-99.9,29.70,West,270,6.5,17.2,-999,0.16,,,0.54,WSDL version 420,2013-01-30 20:29:00,
2013-01-30 15:34:00,60.1,56.8,29.67,WSW,245,7.6,12.1,89,0.16,,,0.54,WSDL version 420,2013-01-30 20:34:00,
2013-01-30 15:39:00,-999.0,-99.9,29.67,East,80,4.0,12.1,-999,0.21,,,0.59,WSDL version 420,2013-01-30 20:39:00,
2013-01-30 15:44:00,-999.0,-99.9,29.67,West,259,5.7,13.2,-999,0.25,,,0.63,WSDL version 420,2013-01-30 20:44:00,
2013-01-30 15:49:00,59.9,57.0,29.67,WSW,243,4.4,13.2,90,0.29,,,0.67,WSDL version 420,2013-01-30 20:49:00,
2013-01-30 15:54:00,-999.0,-99.9,29.67,WNW,284,4.4,9.6,-999,0.25,,,0.67,WSDL version 420,2013-01-30 20:54:00,
2013-01-30 15:59:00,59.9,56.6,29.67,WNW,290,3.6,14.5,89,0.29,,,0.71,WSDL version 420,2013-01-30 20:59:00,
2013-01-30 16:04:00,59.9,56.6,29.64,West,264,5.1,14.5,89,0.33,,,0.75,WSDL version 420,2013-01-30 21:04:00,
2013-01-30 16:09:00,59.9,56.8,29.64,West,276,8.7,24.6,90,0.37,,,0.79,WSDL version 420,2013-01-30 21:09:00,
2013-01-30 16:14:00,59.8,57.1,29.64,SW,225,4.8,24.6,91,0.41,,,0.87,WSDL version 420,2013-01-30 21:14:00,
2013-01-30 16:19:00,59.6,57.2,29.64,WNW,295,4.8,17.4,92,0.46,,,0.96,WSDL version 420,2013-01-30 21:19:00,
2013-01-30 16:24:00,59.7,57.5,29.64,WSW,248,4.0,12.8,92,0.50,,,1.00,WSDL version 420,2013-01-30 21:24:00,
2013-01-30 16:29:00,59.7,57.5,29.64,NW,326,4.5,12.8,92,0.50,,,1.04,WSDL version 420,2013-01-30 21:29:00,
2013-01-30 16:34:00,59.7,57.2,29.64,SW,222,4.1,12.1,91,0.50,,,1.04,WSDL version 420,2013-01-30 21:34:00,
2013-01-30 16:39:00,59.9,56.9,29.64,West,278,5.2,11.0,90,0.49,,,1.08,WSDL version 420,2013-01-30 21:39:00,
2013-01-30 16:44:00,59.7,57.0,29.64,North,350,4.3,11.0,91,0.58,,,1.21,WSDL version 420,2013-01-30 21:44:00,
2013-01-30 16:49:00,59.4,57.1,29.61,WNW,298,4.5,10.7,92,0.79,,,1.46,WSDL version 420,2013-01-30 21:49:00,
2013-01-30 16:54:00,59.0,57.1,29.61,South,188,3.6,10.7,93,1.00,,,1.67,WSDL version 420,2013-01-30 21:54:00,
2013-01-30 16:59:00,58.1,55.8,29.61,SSW,205,3.8,7.4,92,1.12,,,1.83,WSDL version 420,2013-01-30 21:59:00,
2013-01-30 17:04:00,57.8,55.5,29.61,SSW,200,3.8,6.0,92,1.12,,,1.87,WSDL version 420,2013-01-30 22:04:00,
2013-01-30 17:09:00,57.6,55.6,29.61,North,8,2.6,6.3,93,1.25,,,2.04,WSDL version 420,2013-01-30 22:09:00,
2013-01-30 17:14:00,57.3,55.4,29.61,West,268,4.1,8.5,93,1.46,,,2.33,WSDL version 420,2013-01-30 22:14:00,
2013-01-30 17:19:00,57.2,55.5,29.64,WSW,242,2.0,9.4,94,1.41,,,2.37,WSDL version 420,2013-01-30 22:19:00,
2013-01-30 17:24:00,57.2,55.9,29.64,SW,215,3.1,9.4,96,1.37,,,2.37,WSDL version 420,2013-01-30 22:24:00,
2013-01-30 17:29:00,57.2,55.9,29.64,WSW,254,1.1,7.4,96,1.33,,,2.37,WSDL version 420,2013-01-30 22:29:00,
2013-01-30 17:34:00,-999.0,-99.9,29.61,SW,222,0.7,4.0,-999,1.37,,,2.41,WSDL version 420,2013-01-30 22:34:00,
2013-01-30 17:39:00,57.0,55.8,29.61,NE,50,0.5,2.2,96,1.33,,,2.41,WSDL version 420,2013-01-30 22:39:00,
2013-01-30 17:44:00,57.0,55.8,29.61,WNW,290,1.8,3.6,96,1.24,,,2.45,WSDL version 420,2013-01-30 22:44:00,
2013-01-30 17:49:00,57.0,55.8,29.61,East,79,0.3,3.6,96,1.04,,,2.50,WSDL version 420,2013-01-30 22:49:00,
2013-01-30 17:54:00,57.0,55.8,29.61,North,3,0.0,2.7,96,0.87,,,2.54,WSDL version 420,2013-01-30 22:54:00,
2013-01-30 17:59:00,56.9,55.7,29.61,SSW,195,2.9,10.5,96,0.71,,,2.54,WSDL version 420,2013-01-30 22:59:00,
2013-01-30 18:04:00,56.9,55.6,29.61,WSW,250,3.5,10.5,96,0.71,,,2.58,WSDL version 420,2013-01-30 23:04:00,
2013-01-30 18:09:00,56.8,55.6,29.61,West,263,2.1,8.5,96,0.54,,,2.58,WSDL version 420,2013-01-30 23:09:00,
2013-01-30 18:14:00,-999.0,-99.9,29.61,West,276,2.7,5.4,-999,0.25,,,2.58,WSDL version 420,2013-01-30 23:14:00,
2013-01-30 18:19:00,-999.0,-99.9,29.58,SSW,198,2.5,4.9,-999,0.25,,,2.62,WSDL version 420,2013-01-30 23:19:00,
2013-01-30 18:24:00,56.5,55.2,29.58,NNE,23,2.9,5.6,96,0.25,,,2.62,WSDL version 420,2013-01-30 23:24:00,
2013-01-30 18:29:00,56.5,55.2,29.58,SE,145,1.2,5.6,96,0.25,,,2.62,WSDL version 420,2013-01-30 23:29:00,
2013-01-30 18:34:00,56.5,55.2,29.61,ENE,68,1.6,4.7,96,0.25,,,2.66,WSDL version 420,2013-01-30 23:34:00,
2013-01-30 18:39:00,56.5,55.2,29.61,NW,305,2.8,7.4,96,0.25,,,2.66,WSDL version 420,2013-01-30 23:39:00,
2013-01-30 18:44:00,56.4,55.1,29.61,WSW,240,3.9,7.4,96,0.21,,,2.66,WSDL version 420,2013-01-30 23:44:00,
2013-01-30 18:49:00,56.3,55.0,29.61,SW,236,4.4,11.9,96,0.20,,,2.70,WSDL version 420,2013-01-30 23:49:00,
2013-01-30 18:54:00,-999.0,-99.9,29.61,East,88,2.0,11.9,-999,0.16,,,2.70,WSDL version 420,2013-01-30 23:54:00,
2013-01-30 18:59:00,-999.0,-99.9,29.61,SE,133,2.0,4.9,-999,0.16,,,2.70,WSDL version 420,2013-01-30 23:59:00,
2013-01-30 19:04:00,-999.0,-99.9,29.58,NNE,23,0.3,4.9,-999,0.12,,,2.70,WSDL version 420,2013-01-31 00:04:00,
2013-01-30 19:09:00,-999.0,-99.9,29.58,SE,140,4.0,7.4,-999,0.12,,,2.70,WSDL version 420,2013-01-31 00:09:00,
2013-01-30 19:14:00,-999.0,-99.9,29.58,East,98,2.6,7.4,-999,0.16,,,2.74,WSDL version 420,2013-01-31 00:14:00,
2013-01-30 19:19:00,55.9,54.4,29.58,SE,128,2.9,6.9,94,0.12,,,2.74,WSDL version 420,2013-01-31 00:19:00,
2013-01-30 19:24:00,55.9,54.7,29.58,SE,135,3.4,6.0,96,0.12,,,2.74,WSDL version 420,2013-01-31 00:24:00,
2013-01-30 19:29:00,55.9,54.7,29.58,NE,40,3.8,13.0,96,0.12,,,2.74,WSDL version 420,2013-01-31 00:29:00,
2013-01-30 19:34:00,55.9,54.9,29.58,SE,138,2.3,13.0,97,0.08,,,2.74,WSDL version 420,2013-01-31 00:34:00,
2013-01-30 19:39:00,-999.0,-99.9,29.58,ESE,110,3.2,4.9,-999,0.13,,,2.79,WSDL version 420,2013-01-31 00:39:00,
2013-01-30 19:44:00,-999.0,-99.9,29.58,ENE,73,1.9,4.9,-999,0.13,,,2.79,WSDL version 420,2013-01-31 00:44:00,
2013-01-30 19:54:00,-999.0,-99.9,29.58,NNW,343,2.3,6.3,-999,0.09,,,2.79,WSDL version 420,2013-01-31 00:54:00,
2013-01-30 20:04:00,-999.0,-99.9,29.61,South,175,2.9,7.6,-999,0.13,,,2.83,WSDL version 420,2013-01-31 01:04:00,
2013-01-30 20:09:00,-999.0,-99.9,29.61,NNW,329,2.3,10.1,-999,0.13,,,2.83,WSDL version 420,2013-01-31 01:09:00,
2013-01-30 20:14:00,-999.0,-99.9,29.61,East,93,2.8,10.1,-999,0.09,,,2.83,WSDL version 420,2013-01-31 01:14:00,
2013-01-30 20:19:00,-999.0,-99.9,29.65,SE,143,1.8,5.4,-999,0.13,,,2.87,WSDL version 420,2013-01-31 01:19:00,
2013-01-30 20:24:00,-999.0,-99.9,29.66,SE,132,2.8,6.3,-999,0.13,,,2.87,WSDL version 420,2013-01-31 01:24:00,
2013-01-30 20:29:00,-999.0,-99.9,29.66,West,263,3.3,7.4,-999,0.17,,,2.91,WSDL version 420,2013-01-31 01:29:00,
2013-01-30 20:34:00,-999.0,-99.9,29.62,South,180,1.3,7.4,-999,0.17,,,2.91,WSDL version 420,2013-01-31 01:34:00,
2013-01-30 20:39:00,-999.0,-99.9,29.62,ENE,70,3.5,9.4,-999,0.12,,,2.91,WSDL version 420,2013-01-31 01:39:00,
2013-01-30 20:44:00,-999.0,-99.9,29.62,East,80,3.1,9.4,-999,0.16,,,2.95,WSDL version 420,2013-01-31 01:44:00,
2013-01-30 20:49:00,-999.0,-99.9,29.66,NW,325,3.3,7.8,-999,0.16,,,2.95,WSDL version 420,2013-01-31 01:49:00,
2013-01-30 20:54:00,-999.0,-99.9,29.66,SW,233,2.3,7.8,-999,0.20,,,2.99,WSDL version 420,2013-01-31 01:54:00,
2013-01-30 21:04:00,-999.0,-99.9,29.62,WNW,284,1.1,3.8,-999,0.16,,,2.99,WSDL version 420,2013-01-31 02:04:00,
2013-01-30 21:09:00,-999.0,-99.9,29.63,WSW,245,1.1,4.9,-999,0.16,,,2.99,WSDL version 420,2013-01-31 02:09:00,
2013-01-30 21:14:00,46.9,41.8,29.63,WSW,256,0.7,4.9,83,0.16,,,2.99,WSDL version 420,2013-01-31 02:14:00,
2013-01-30 21:19:00,-999.0,-99.9,29.60,NE,43,3.5,10.3,-999,0.12,,,2.99,WSDL version 420,2013-01-31 02:19:00,
2013-01-30 21:24:00,46.3,41.2,29.60,ENE,59,3.5,10.3,82,0.12,,,2.99,WSDL version 420,2013-01-31 02:24:00,
2013-01-30 21:29:00,46.0,39.2,29.60,NNW,333,3.8,8.7,77,0.08,,,2.99,WSDL version 420,2013-01-31 02:29:00,
2013-01-30 21:34:00,-999.0,-99.9,29.60,NE,37,3.3,9.2,-999,0.13,,,3.04,WSDL version 420,2013-01-31 02:34:00,
2013-01-30 21:39:00,-999.0,-99.9,29.60,NE,50,3.8,9.2,-999,0.13,,,3.04,WSDL version 420,2013-01-31 02:39:00,
2013-01-30 21:44:00,-999.0,-99.9,29.60,South,191,3.2,8.7,-999,0.09,,,3.04,WSDL version 420,2013-01-31 02:44:00,
2013-01-30 21:49:00,45.0,37.5,29.60,SSW,211,3.2,6.0,75,0.09,,,3.04,WSDL version 420,2013-01-31 02:49:00,
2013-01-30 21:59:00,44.8,37.5,29.61,SE,129,3.0,6.9,76,0.05,,,3.04,WSDL version 420,2013-01-31 02:59:00,
2013-01-30 22:04:00,44.7,37.7,29.61,SW,225,2.3,5.8,77,0.05,,,3.04,WSDL version 420,2013-01-31 03:04:00,
2013-01-30 22:09:00,44.4,37.4,29.61,South,174,2.2,5.8,76,0.05,,,3.04,WSDL version 420,2013-01-31 03:09:00,
2013-01-30 22:14:00,44.2,37.3,29.61,ESE,113,3.7,6.0,77,0.05,,,3.04,WSDL version 420,2013-01-31 03:14:00,
2013-01-30 22:19:00,44.1,37.3,29.64,East,79,2.2,6.0,77,0.05,,,3.04,WSDL version 420,2013-01-31 03:19:00,
2013-01-30 22:24:00,43.8,37.2,29.64,SE,128,2.9,4.3,78,0.05,,,3.04,WSDL version 420,2013-01-31 03:24:00,
2013-01-30 22:29:00,43.8,37.7,29.64,East,100,3.0,4.0,79,0.05,,,3.04,WSDL version 420,2013-01-31 03:29:00,
2013-01-30 22:34:00,43.6,37.6,29.61,ESE,113,2.6,5.4,79,0.00,,,3.04,WSDL version 420,2013-01-31 03:34:00,
2013-01-30 22:39:00,43.5,37.3,29.61,SSW,203,1.6,5.6,78,0.00,,,3.04,WSDL version 420,2013-01-31 03:39:00,
2013-01-30 22:44:00,43.4,36.8,29.61,ESE,122,2.7,14.5,77,0.00,,,3.04,WSDL version 420,2013-01-31 03:44:00,
2013-01-30 22:49:00,43.3,36.6,29.61,ESE,115,3.9,14.5,76,0.00,,,3.04,WSDL version 420,2013-01-31 03:49:00,
2013-01-30 22:54:00,43.2,36.0,29.61,NE,45,2.6,7.2,76,0.00,,,3.04,WSDL version 420,2013-01-31 03:54:00,
2013-01-30 22:59:00,43.2,36.4,29.61,NNE,28,2.9,8.5,77,0.00,,,3.04,WSDL version 420,2013-01-31 03:59:00,
2013-01-30 23:04:00,43.2,36.4,29.64,ENE,78,2.1,13.0,77,0.00,,,3.04,WSDL version 420,2013-01-31 04:04:00,
2013-01-30 23:09:00,43.2,36.6,29.64,ENE,76,3.5,13.0,77,0.00,,,3.04,WSDL version 420,2013-01-31 04:09:00,
2013-01-30 23:14:00,43.3,36.8,29.64,NE,48,2.2,8.1,78,0.00,,,3.04,WSDL version 420,2013-01-31 04:14:00,
2013-01-30 23:19:00,43.2,36.9,29.64,SSE,163,3.9,8.1,79,0.00,,,3.04,WSDL version 420,2013-01-31 04:19:00,
2013-01-30 23:24:00,43.2,36.8,29.64,WSW,255,2.3,8.1,78,0.00,,,3.04,WSDL version 420,2013-01-31 04:24:00,
2013-01-30 23:29:00,43.1,36.1,29.64,ESE,103,4.2,8.5,76,0.00,,,3.04,WSDL version 420,2013-01-31 04:29:00,
2013-01-30 23:34:00,43.0,35.9,29.64,SSE,148,2.3,8.5,76,0.00,,,3.04,WSDL version 420,2013-01-31 04:34:00,
2013-01-30 23:39:00,43.0,35.9,29.64,ESE,113,1.7,4.0,76,0.00,,,3.04,WSDL version 420,2013-01-31 04:39:00,
2013-01-30 23:44:00,43.0,35.7,29.64,ESE,118,2.2,5.8,75,0.00,,,3.04,WSDL version 420,2013-01-31 04:44:00,
2013-01-30 23:49:00,42.9,35.6,29.61,SE,141,3.1,5.8,76,0.00,,,3.04,WSDL version 420,2013-01-31 04:49:00,
2013-01-30 23:54:00,42.8,35.2,29.61,South,177,3.5,6.5,73,0.00,,,3.04,WSDL version 420,2013-01-31 04:54:00,
2013-01-30 23:59:00,42.7,35.0,29.61,SE,135,4.8,7.8,74,0.00,,,3.04,WSDL version 420,2013-01-31 04:59:00,